Butterfly, Kentucky
Current Conditions -  °F | °C
As of 12:53 PM on Friday 19 Dec 2014 (Local Time) from KJKL Reporting Station
Clear Clear  
Wind Chill: -1°   Ceiling: Unl
Heat Index:   Visibility: 10mi
Dew Point: -5°   Wind: 5mph
Humidity: 61%   Direction: 290°WNW
Pressure: 30.21"   Gusts: NA
Location:  37.3117°N, 83.2191°W
Report Text: KJKL 191753Z AUTO 29004KT 10SM CLR 02/M05 A3021 RMK AO2 SLP240 T00171050 10022 21017 58006
Loading
Personal Weather Stations






























Interactive Weather Map New forecast layout! Learn more

10-Day Weather Forecast

Advertisements
Track Severe Weather on mobile